Time;durP1;ratioP1;P1;durP2;ratioP2;P2;SDS_P1;SDS_P2;PMS_P1;PMS_P2;Temp;Humidity;BMP_temperature;BMP_pressure;BME280_temperature;BME280_humidity;BME280_pressure;Samples;Min_cycle;Max_cycle;Signal;HPM_P1;HPM_P2
2022/09/15 00:01:10;;;;;;;1.80;0.83;;;;;;;18.22;95.68;94583.75;4381997;32;20252;-64
2022/09/15 00:03:38;;;;;;;0.20;0.20;;;;;;;18.27;95.44;94575.41;4403023;32;20188;-64
2022/09/15 00:06:05;;;;;;;0.30;0.30;;;;;;;18.36;94.63;94575.91;4357023;32;20185;-64
2022/09/15 00:08:34;;;;;;;0.20;0.20;;;;;;;18.38;95.10;94581.69;4378872;32;20188;-64
2022/09/15 00:11:10;;;;;;;0.20;0.20;;;;;;;18.39;94.42;94580.56;4363476;32;20199;-64
2022/09/15 00:13:37;;;;;;;0.40;0.40;;;;;;;18.37;94.48;94569.41;4381556;32;20203;-64
2022/09/15 00:16:05;;;;;;;0.40;0.40;;;;;;;18.40;94.22;94579.41;4397059;32;20215;-64
2022/09/15 00:18:31;;;;;;;0.67;0.67;;;;;;;18.38;94.68;94573.63;4389754;32;20228;-64
2022/09/15 00:20:57;;;;;;;0.20;0.20;;;;;;;18.42;94.29;94569.09;4411453;32;20204;-64
2022/09/15 00:23:24;;;;;;;0.47;0.47;;;;;;;18.43;95.01;94572.56;4363153;32;20202;-64
2022/09/15 00:25:52;;;;;;;0.30;0.30;;;;;;;18.31;94.70;94567.37;4388725;32;20269;-64
2022/09/15 00:28:20;;;;;;;0.70;0.60;;;;;;;18.43;95.23;94562.59;4356329;32;20191;-64
2022/09/15 00:30:58;;;;;;;0.40;0.40;;;;;;;18.43;94.81;94553.75;4394520;32;20198;-64
2022/09/15 00:33:23;;;;;;;0.27;0.23;;;;;;;18.46;95.48;94553.81;4383165;32;20184;-64
2022/09/15 00:35:55;;;;;;;0.53;0.53;;;;;;;18.48;95.40;94554.22;4354183;32;20252;-64
2022/09/15 00:38:21;;;;;;;0.10;0.10;;;;;;;18.46;94.45;94553.81;4390972;32;20176;-64
2022/09/15 00:40:53;;;;;;;0.73;0.73;;;;;;;18.50;94.84;94553.84;4398554;32;20247;-64
2022/09/15 00:43:39;;;;;;;1.33;0.53;;;;;;;18.46;94.90;94551.13;4373677;32;20233;-65
2022/09/15 00:46:06;;;;;;;0.47;0.47;;;;;;;18.58;94.98;94555.50;4386862;32;20215;-64
2022/09/15 00:48:32;;;;;;;7.93;0.60;;;;;;;18.62;94.64;94550.22;4383238;32;20184;-64
2022/09/15 00:51:01;;;;;;;2.30;0.70;;;;;;;18.65;94.54;94554.88;4345853;32;20251;-64
2022/09/15 00:53:30;;;;;;;0.20;0.20;;;;;;;18.67;94.44;94545.31;4365063;32;20208;-64
2022/09/15 00:56:02;;;;;;;0.20;0.20;;;;;;;18.58;94.30;94550.13;4404429;32;20192;-64
2022/09/15 00:58:45;;;;;;;0.60;0.60;;;;;;;18.61;94.39;94545.97;4378103;32;20180;-64
2022/09/15 01:01:13;;;;;;;1.03;0.50;;;;;;;18.63;94.58;94546.38;4349220;32;20180;-64
2022/09/15 01:03:40;;;;;;;0.20;0.20;;;;;;;18.47;93.85;94539.25;4389738;32;20192;-64
2022/09/15 01:06:16;;;;;;;0.77;0.77;;;;;;;18.40;94.66;94531.06;4383215;32;20203;-64
2022/09/15 01:08:51;;;;;;;0.57;0.57;;;;;;;18.41;94.59;94529.94;4385288;32;20230;-64
2022/09/15 01:11:17;;;;;;;0.20;0.20;;;;;;;18.42;94.44;94533.41;4394281;32;20176;-64
2022/09/15 01:13:43;;;;;;;0.20;0.20;;;;;;;18.44;94.63;94542.66;4347332;32;20247;-64
2022/09/15 01:16:09;;;;;;;1.60;0.70;;;;;;;18.43;94.09;94535.72;4371271;32;20185;-65
2022/09/15 01:18:58;;;;;;;2.67;0.77;;;;;;;18.34;93.66;94527.16;4392715;32;20233;-64
2022/09/15 01:21:45;;;;;;;0.67;0.67;;;;;;;18.34;93.95;94531.75;4378525;32;20184;-64
2022/09/15 01:24:46;;;;;;;0.33;0.33;;;;;;;18.28;94.65;94522.47;4398919;32;20188;-64
2022/09/15 01:27:33;;;;;;;0.37;0.37;;;;;;;18.27;94.63;94523.59;4387406;32;20199;-64
2022/09/15 01:30:04;;;;;;;0.47;0.47;;;;;;;18.22;93.94;94523.91;4382238;32;20245;-64
2022/09/15 01:33:08;;;;;;;0.20;0.20;;;;;;;18.30;94.74;94526.31;4401366;32;20221;-64
2022/09/15 01:35:44;;;;;;;0.30;0.30;;;;;;;18.14;94.12;94514.97;4381310;32;20184;-64
2022/09/15 01:38:42;;;;;;;0.50;0.50;;;;;;;18.15;94.20;94519.19;4382636;32;20215;-64
2022/09/15 01:41:23;;;;;;;0.20;0.20;;;;;;;18.14;94.13;94515.72;4403142;32;20226;-64
2022/09/15 01:44:11;;;;;;;0.30;0.30;;;;;;;18.25;94.16;94517.81;4373909;32;20227;-64
2022/09/15 01:46:47;;;;;;;1.13;0.63;;;;;;;18.28;92.51;94522.47;4381240;32;20275;-64
2022/09/15 01:49:20;;;;;;;0.30;0.23;;;;;;;18.26;92.99;94520.13;4382103;32;20245;-64
2022/09/15 01:51:50;;;;;;;0.20;0.20;;;;;;;18.25;92.70;94523.19;4374764;32;20202;-64
2022/09/15 01:54:18;;;;;;;2.20;0.63;;;;;;;18.25;91.56;94515.91;4403100;32;20212;-64
2022/09/15 01:56:45;;;;;;;0.20;0.20;;;;;;;18.26;91.48;94520.13;4385484;32;20184;-64
2022/09/15 01:59:11;;;;;;;0.37;0.37;;;;;;;18.27;91.24;94519.00;4384759;32;20212;-64
2022/09/15 02:01:51;;;;;;;0.77;0.77;;;;;;;18.19;91.41;94518.13;4388227;32;20183;-64
2022/09/15 02:04:28;;;;;;;0.43;0.43;;;;;;;18.21;90.86;94515.06;4390857;32;20189;-64
2022/09/15 02:07:06;;;;;;;0.27;0.27;;;;;;;18.26;90.37;94514.78;4403499;32;20197;-64
2022/09/15 02:09:42;;;;;;;0.27;0.27;;;;;;;18.29;89.87;94505.97;4375998;32;20224;-64
2022/09/15 02:12:19;;;;;;;0.20;0.20;;;;;;;18.31;89.80;94510.97;4365215;32;20195;-64
2022/09/15 02:14:56;;;;;;;0.20;0.20;;;;;;;18.38;88.73;94527.97;4374546;32;20261;-64
2022/09/15 02:17:34;;;;;;;0.27;0.27;;;;;;;18.40;89.44;94523.03;4347672;32;20184;-64
2022/09/15 02:20:34;;;;;;;0.30;0.30;;;;;;;18.40;88.78;94520.34;4379747;32;20232;-64
2022/09/15 02:23:07;;;;;;;0.30;0.30;;;;;;;18.47;88.29;94515.06;4394926;32;20276;-64
2022/09/15 02:25:46;;;;;;;0.30;0.30;;;;;;;18.42;89.44;94522.66;4387647;32;20246;-64
2022/09/15 02:28:14;;;;;;;2.43;1.00;;;;;;;18.37;89.69;94521.06;4413539;32;20200;-64
2022/09/15 02:30:43;;;;;;;0.20;0.20;;;;;;;18.36;89.41;94506.06;4387966;32;20177;-64
2022/09/15 02:33:14;;;;;;;0.53;0.53;;;;;;;18.39;89.13;94521.47;4391489;32;20187;-64
2022/09/15 02:35:41;;;;;;;0.43;0.43;;;;;;;18.40;88.55;94516.88;4401424;32;20202;-64
2022/09/15 02:38:08;;;;;;;2.23;0.87;;;;;;;18.39;89.04;94513.41;4368285;32;20185;-64
2022/09/15 02:40:41;;;;;;;0.80;0.80;;;;;;;18.36;89.26;94519.50;4376328;32;20181;-63
2022/09/15 02:43:11;;;;;;;0.40;0.40;;;;;;;18.39;88.84;94518.00;4393694;32;20185;-63
2022/09/15 02:45:37;;;;;;;0.50;0.50;;;;;;;18.35;88.65;94512.59;4381844;32;20200;-64
2022/09/15 02:48:08;;;;;;;0.33;0.33;;;;;;;18.30;88.31;94520.94;4369665;32;20238;-65
2022/09/15 02:50:35;;;;;;;1.07;0.70;;;;;;;18.39;90.22;94516.09;4363910;32;20203;-64
2022/09/15 02:53:01;;;;;;;5.40;0.60;;;;;;;18.43;90.07;94514.25;4342258;32;20196;-64
2022/09/15 02:55:27;;;;;;;0.40;0.40;;;;;;;18.35;88.85;94517.94;4373220;32;20245;-63
2022/09/15 02:58:04;;;;;;;0.47;0.47;;;;;;;18.33;89.53;94517.53;4373309;32;20289;-63
2022/09/15 03:00:32;;;;;;;0.40;0.40;;;;;;;18.34;90.57;94513.72;4377042;32;20225;-64
2022/09/15 03:02:57;;;;;;;0.20;0.20;;;;;;;18.30;89.59;94512.87;4363012;32;20188;-63
2022/09/15 03:05:28;;;;;;;5.00;1.13;;;;;;;18.27;88.47;94510.94;4398358;32;20214;-66
2022/09/15 03:08:01;;;;;;;0.60;0.60;;;;;;;18.27;88.30;94510.19;4385330;32;20246;-64
2022/09/15 03:10:27;;;;;;;0.70;0.70;;;;;;;18.21;88.78;94507.00;4400636;32;20284;-63
2022/09/15 03:12:55;;;;;;;0.20;0.20;;;;;;;18.22;88.84;94507.78;4401691;32;20345;-64
2022/09/15 03:15:23;;;;;;;3.97;0.60;;;;;;;18.20;88.48;94516.22;4402276;32;20272;-63
2022/09/15 03:17:54;;;;;;;5.00;1.10;;;;;;;18.25;88.62;94510.53;4391529;32;20259;-64
2022/09/15 03:20:29;;;;;;;0.17;0.17;;;;;;;18.25;88.83;94517.81;4384432;32;20189;-64
2022/09/15 03:23:11;;;;;;;0.30;0.30;;;;;;;18.26;89.64;94520.13;4355716;32;20192;-64
2022/09/15 03:25:36;;;;;;;2.70;0.70;;;;;;;18.16;88.78;94526.13;4385867;32;20180;-64
2022/09/15 03:28:02;;;;;;;0.30;0.30;;;;;;;18.26;87.77;94524.72;4395602;32;20176;-64
2022/09/15 03:30:28;;;;;;;0.10;0.10;;;;;;;18.26;88.61;94522.03;4400035;32;20185;-64
2022/09/15 03:32:53;;;;;;;0.40;0.40;;;;;;;18.17;89.03;94527.66;4383273;32;20188;-64
2022/09/15 03:35:21;;;;;;;0.83;0.83;;;;;;;18.14;87.68;94520.31;4362471;32;21497;-63
2022/09/15 03:37:47;;;;;;;0.97;0.93;;;;;;;18.18;89.86;94513.87;4397595;32;20189;-64
2022/09/15 03:40:13;;;;;;;0.23;0.23;;;;;;;18.20;88.81;94518.88;4383369;32;20253;-64
2022/09/15 03:42:40;;;;;;;0.40;0.40;;;;;;;18.17;88.28;94522.28;4383237;32;20184;-64
2022/09/15 03:45:08;;;;;;;0.40;0.40;;;;;;;18.22;87.82;94519.31;4384057;32;20185;-64
2022/09/15 03:47:33;;;;;;;0.40;0.40;;;;;;;18.12;87.19;94515.31;4417122;32;20236;-64
2022/09/15 03:49:59;;;;;;;0.60;0.47;;;;;;;18.11;88.05;94518.34;4375907;32;20204;-64
2022/09/15 03:52:25;;;;;;;0.40;0.40;;;;;;;18.20;87.73;94519.66;4368112;32;20184;-64
2022/09/15 03:54:51;;;;;;;0.70;0.70;;;;;;;18.21;87.28;94523.13;4389067;32;20180;-64
2022/09/15 03:57:17;;;;;;;0.50;0.50;;;;;;;18.18;88.25;94530.00;4377192;32;20192;-64
2022/09/15 03:59:43;;;;;;;0.27;0.27;;;;;;;18.27;88.24;94526.28;4391270;32;20239;-64
2022/09/15 04:02:11;;;;;;;0.30;0.30;;;;;;;18.30;89.19;94515.56;4389704;32;20248;-64
2022/09/15 04:04:37;;;;;;;0.60;0.57;;;;;;;18.16;87.40;94520.75;4393460;32;20188;-64
2022/09/15 04:07:03;;;;;;;1.20;0.73;;;;;;;18.22;88.05;94513.16;4400096;32;20228;-64
2022/09/15 04:09:30;;;;;;;0.30;0.30;;;;;;;18.24;86.75;94516.25;4397132;32;20267;-64
2022/09/15 04:11:57;;;;;;;0.47;0.47;;;;;;;18.28;86.33;94527.84;4377267;32;20181;-64
2022/09/15 04:14:24;;;;;;;0.57;0.57;;;;;;;18.24;87.25;94517.03;4370563;32;20202;-64
2022/09/15 04:16:51;;;;;;;0.23;0.23;;;;;;;18.34;85.93;94513.72;4383418;32;20308;-64
2022/09/15 04:19:18;;;;;;;0.40;0.40;;;;;;;18.32;85.76;94512.53;4371650;32;20193;-64
2022/09/15 04:21:46;;;;;;;0.40;0.40;;;;;;;18.30;85.07;94515.56;4376414;32;20233;-64
2022/09/15 04:24:13;;;;;;;0.13;0.13;;;;;;;18.23;85.65;94515.50;4380853;32;20196;-63
2022/09/15 04:26:38;;;;;;;0.67;0.40;;;;;;;18.32;86.43;94513.31;4375084;32;20184;-64
2022/09/15 04:29:12;;;;;;;1.20;0.60;;;;;;;18.27;86.08;94516.31;4351396;32;20181;-64
2022/09/15 04:31:37;;;;;;;2.17;0.77;;;;;;;18.34;87.60;94516.41;4392154;32;20203;-64
2022/09/15 04:34:03;;;;;;;0.57;0.57;;;;;;;18.26;86.51;94509.41;4386957;32;20193;-64
2022/09/15 04:36:30;;;;;;;1.40;0.83;;;;;;;18.37;86.68;94507.63;4389495;32;20199;-64
2022/09/15 04:38:56;;;;;;;0.57;0.57;;;;;;;18.40;85.68;94495.38;4392602;32;20191;-64
2022/09/15 04:41:23;;;;;;;0.20;0.20;;;;;;;18.30;85.39;94504.06;4398451;32;20201;-64
2022/09/15 04:43:48;;;;;;;0.17;0.17;;;;;;;18.27;85.31;94500.22;4391421;32;20245;-64
2022/09/15 04:46:15;;;;;;;0.30;0.30;;;;;;;18.35;87.55;94496.47;4398789;32;20266;-63
2022/09/15 04:48:41;;;;;;;0.10;0.10;;;;;;;18.37;83.95;94488.06;4391640;32;20176;-63
2022/09/15 04:51:11;;;;;;;0.30;0.30;;;;;;;18.36;84.41;94492.66;4401485;32;20206;-63
2022/09/15 04:53:36;;;;;;;0.20;0.20;;;;;;;18.31;82.93;94498.31;4388121;32;20181;-63
2022/09/15 04:56:07;;;;;;;0.10;0.10;;;;;;;18.31;83.42;94501.00;4393730;32;20202;-64
2022/09/15 04:58:37;;;;;;;0.07;0.07;;;;;;;18.33;83.62;94488.00;4391201;32;20211;-63
2022/09/15 05:01:12;;;;;;;0.10;0.10;;;;;;;18.35;83.70;94485.72;4400447;32;20278;-64
2022/09/15 05:03:38;;;;;;;0.50;0.40;;;;;;;18.37;83.18;94482.69;4402215;32;20179;-64
2022/09/15 05:06:05;;;;;;;0.20;0.20;;;;;;;18.33;84.47;94479.94;4399739;32;20236;-64
2022/09/15 05:08:31;;;;;;;0.20;0.10;;;;;;;18.35;83.64;94480.34;4397490;32;20210;-64
2022/09/15 05:11:04;;;;;;;0.13;0.13;;;;;;;18.41;83.62;94486.97;4395476;32;20188;-64
2022/09/15 05:13:30;;;;;;;0.20;0.20;;;;;;;18.37;82.59;94483.44;4391928;32;20215;-64
2022/09/15 05:15:55;;;;;;;0.40;0.40;;;;;;;18.36;82.94;94487.28;4397583;32;20193;-64
2022/09/15 05:18:21;;;;;;;0.10;0.10;;;;;;;18.36;83.37;94481.13;4393739;32;20249;-64
2022/09/15 05:20:46;;;;;;;0.13;0.13;;;;;;;18.37;82.88;94482.69;4390762;32;20265;-64
2022/09/15 05:23:11;;;;;;;0.20;0.20;;;;;;;18.42;81.69;94488.53;4393626;32;20249;-64
2022/09/15 05:25:37;;;;;;;0.40;0.40;;;;;;;18.46;84.38;94496.63;4399777;32;20234;-64
2022/09/15 05:28:03;;;;;;;0.20;0.13;;;;;;;18.39;82.24;94494.62;4393192;32;20236;-64
2022/09/15 05:30:29;;;;;;;0.23;0.17;;;;;;;18.46;82.14;94510.06;4394632;32;20183;-64
2022/09/15 05:32:55;;;;;;;0.40;0.40;;;;;;;18.38;82.74;94500.34;4390800;32;20210;-65
2022/09/15 05:35:22;;;;;;;0.20;0.20;;;;;;;18.40;82.28;94504.22;4392399;32;20184;-65
2022/09/15 05:37:48;;;;;;;0.10;0.10;;;;;;;18.36;82.96;94499.94;4398247;32;20192;-65
2022/09/15 05:40:14;;;;;;;0.20;0.20;;;;;;;18.34;83.15;94502.97;4393439;32;20284;-64
2022/09/15 05:42:39;;;;;;;0.30;0.30;;;;;;;18.39;82.41;94502.66;4405107;32;20207;-65
2022/09/15 05:45:05;;;;;;;0.00;0.00;;;;;;;18.43;82.95;94500.03;4402706;32;20188;-64
2022/09/15 05:47:31;;;;;;;0.20;0.20;;;;;;;18.35;83.36;94501.84;4389681;32;20216;-64
2022/09/15 05:49:56;;;;;;;0.10;0.10;;;;;;;18.29;83.27;94507.91;4398439;32;20184;-65
2022/09/15 05:52:21;;;;;;;0.07;0.07;;;;;;;18.37;84.56;94515.69;4393343;32;20233;-64
2022/09/15 05:54:47;;;;;;;0.53;0.40;;;;;;;18.40;85.68;94509.59;4387693;32;20211;-64
2022/09/15 05:57:12;;;;;;;0.20;0.20;;;;;;;18.48;82.96;94505.09;4399711;32;20235;-64
2022/09/15 05:59:38;;;;;;;4.57;0.53;;;;;;;18.49;82.27;94515.50;4385621;32;20192;-65
2022/09/15 06:02:04;;;;;;;1.80;0.47;;;;;;;18.44;83.28;94515.78;4388480;32;20348;-64
2022/09/15 06:04:29;;;;;;;2.33;0.83;;;;;;;18.42;82.62;94515.38;4400079;32;20234;-65
2022/09/15 06:06:55;;;;;;;1.30;0.57;;;;;;;18.47;84.41;94515.06;4396644;32;20200;-64
2022/09/15 06:09:20;;;;;;;0.20;0.20;;;;;;;18.48;82.77;94518.53;4396871;32;20199;-64
2022/09/15 06:11:46;;;;;;;0.93;0.43;;;;;;;18.37;82.78;94517.59;4390688;32;20230;-64
2022/09/15 06:14:12;;;;;;;0.27;0.27;;;;;;;18.41;83.94;94519.19;4393066;32;20283;-64
2022/09/15 06:16:37;;;;;;;0.20;0.20;;;;;;;18.44;82.95;94518.47;4390891;32;20188;-64
2022/09/15 06:19:03;;;;;;;0.20;0.20;;;;;;;18.45;82.93;94520.03;4394241;32;20238;-64
2022/09/15 06:21:30;;;;;;;0.10;0.10;;;;;;;18.54;82.99;94525.91;4412725;32;20212;-64
2022/09/15 06:24:02;;;;;;;1.80;0.67;;;;;;;18.52;82.42;94517.41;4391088;32;20181;-65
2022/09/15 06:26:28;;;;;;;11.97;1.53;;;;;;;18.58;83.66;94527.87;4386372;32;20193;-65
2022/09/15 06:28:56;;;;;;;0.50;0.50;;;;;;;18.64;83.22;94523.75;4388783;32;20192;-66
2022/09/15 06:31:22;;;;;;;0.23;0.23;;;;;;;18.63;85.10;94522.97;4393528;32;20192;-65
2022/09/15 06:33:50;;;;;;;0.33;0.33;;;;;;;18.59;82.70;94534.78;4395466;32;20183;-65
2022/09/15 06:36:15;;;;;;;1.33;0.73;;;;;;;18.53;82.73;94535.09;4402463;32;20211;-65
2022/09/15 06:38:42;;;;;;;0.20;0.20;;;;;;;18.51;83.10;94539.28;4390644;32;20227;-65
2022/09/15 06:41:08;;;;;;;0.40;0.40;;;;;;;18.47;83.65;94541.94;4386801;32;20188;-65
2022/09/15 06:43:35;;;;;;;0.20;0.20;;;;;;;18.52;83.04;94538.13;4387455;32;20220;-65
2022/09/15 06:46:10;;;;;;;1.27;0.40;;;;;;;18.42;83.96;94539.56;4400341;32;20180;-65
2022/09/15 06:48:37;;;;;;;0.20;0.20;;;;;;;18.44;84.41;94541.88;4391113;32;20189;-65
2022/09/15 06:51:04;;;;;;;0.83;0.47;;;;;;;18.45;84.59;94538.06;4392133;32;20234;-65
2022/09/15 06:53:30;;;;;;;0.40;0.40;;;;;;;18.53;84.05;94545.84;4397239;32;20188;-65
2022/09/15 06:56:01;;;;;;;0.20;0.20;;;;;;;18.51;85.48;94558.84;4404875;32;20189;-65
2022/09/15 06:58:27;;;;;;;0.43;0.43;;;;;;;18.35;87.31;94557.47;4385723;32;20192;-65
2022/09/15 07:00:52;;;;;;;0.27;0.27;;;;;;;18.29;87.79;94565.03;4391477;32;20262;-66
2022/09/15 07:03:17;;;;;;;0.57;0.40;;;;;;;18.20;88.43;94559.16;4399627;32;20196;-68
2022/09/15 07:05:45;;;;;;;0.33;0.33;;;;;;;18.04;90.69;94564.69;4390552;32;20250;-69
2022/09/15 07:08:10;;;;;;;0.10;0.10;;;;;;;17.88;93.19;94564.00;4395591;32;20199;-68
2022/09/15 07:10:35;;;;;;;2.10;0.87;;;;;;;17.77;94.40;94563.06;4394359;32;20180;-68
2022/09/15 07:13:02;;;;;;;0.20;0.20;;;;;;;17.55;95.11;94564.56;4399352;32;20220;-65
2022/09/15 07:15:27;;;;;;;0.30;0.30;;;;;;;17.64;95.32;94558.97;4397416;32;20208;-68
2022/09/15 07:17:53;;;;;;;0.20;0.20;;;;;;;17.63;95.72;94558.19;4398556;32;20210;-69
2022/09/15 07:20:18;;;;;;;0.43;0.43;;;;;;;17.62;96.02;94561.25;4396986;32;20193;-68
2022/09/15 07:22:44;;;;;;;0.37;0.37;;;;;;;17.77;96.09;94563.84;4389477;32;20264;-64
2022/09/15 07:25:09;;;;;;;1.37;0.53;;;;;;;17.74;94.98;94559.19;4393169;32;20181;-66
2022/09/15 07:27:34;;;;;;;0.20;0.20;;;;;;;17.54;96.14;94552.28;4396727;32;20198;-70
2022/09/15 07:30:01;;;;;;;0.80;0.80;;;;;;;17.78;96.97;94554.66;4399840;32;20259;-63
2022/09/15 07:32:26;;;;;;;0.40;0.40;;;;;;;17.77;95.88;94563.06;4395890;32;20184;-69
2022/09/15 07:34:51;;;;;;;0.60;0.60;;;;;;;17.91;95.43;94554.47;4396606;32;20202;-67
2022/09/15 07:37:17;;;;;;;0.37;0.33;;;;;;;18.01;94.50;94551.19;4401361;32;20184;-67
2022/09/15 07:39:42;;;;;;;0.17;0.17;;;;;;;18.07;94.11;94550.53;4394952;32;20259;-67
2022/09/15 07:42:08;;;;;;;0.50;0.50;;;;;;;18.10;94.70;94555.16;4402230;32;20192;-67
2022/09/15 07:44:33;;;;;;;0.83;0.83;;;;;;;18.09;93.49;94563.56;4404213;32;20239;-68
2022/09/15 07:46:58;;;;;;;1.50;0.83;;;;;;;18.22;94.13;94566.87;4392493;32;20184;-64
2022/09/15 07:49:24;;;;;;;0.30;0.30;;;;;;;18.30;91.82;94561.22;4394776;32;20184;-66
2022/09/15 07:51:49;;;;;;;0.10;0.10;;;;;;;18.41;91.76;94556.81;4407697;32;22879;-65
2022/09/15 07:54:14;;;;;;;0.40;0.40;;;;;;;18.41;91.08;94561.41;4396554;32;20270;-65
2022/09/15 07:56:40;;;;;;;0.23;0.23;;;;;;;18.54;90.89;94560.03;4391039;32;20187;-65
2022/09/15 07:59:06;;;;;;;0.23;0.23;;;;;;;18.54;90.11;94568.09;4395356;32;20192;-65
2022/09/15 08:01:31;;;;;;;1.27;1.17;;;;;;;18.64;89.55;94567.53;4393978;32;20188;-66
2022/09/15 08:03:57;;;;;;;0.43;0.43;;;;;;;18.65;89.17;94571.00;4395932;32;20211;-66
2022/09/15 08:06:24;;;;;;;0.43;0.43;;;;;;;18.71;89.11;94566.81;4390026;32;20267;-66
2022/09/15 08:08:50;;;;;;;0.20;0.20;;;;;;;18.72;88.92;94566.47;4395885;32;20181;-67
2022/09/15 08:11:18;;;;;;;1.00;0.37;;;;;;;18.75;89.04;94554.22;4407533;32;20188;-64
2022/09/15 08:13:44;;;;;;;0.40;0.40;;;;;;;18.80;88.07;94565.44;4394192;32;20232;-67
2022/09/15 08:16:16;;;;;;;24.27;1.27;;;;;;;18.77;86.56;94566.16;4400243;32;20232;-65
2022/09/15 08:18:42;;;;;;;0.23;0.23;;;;;;;18.75;87.13;94564.97;4399380;32;20240;-65
2022/09/15 08:21:14;;;;;;;0.20;0.20;;;;;;;18.82;87.24;94565.84;4398491;32;20200;-65
2022/09/15 08:23:39;;;;;;;0.37;0.37;;;;;;;18.61;87.70;94562.09;4390561;32;20203;-69
2022/09/15 08:26:06;;;;;;;0.40;0.40;;;;;;;18.72;87.59;94563.00;4393367;32;20189;-67
2022/09/15 08:28:31;;;;;;;0.77;0.60;;;;;;;18.79;86.63;94568.47;4399842;32;20204;-65
2022/09/15 08:30:59;;;;;;;0.67;0.67;;;;;;;18.74;86.80;94571.47;4392039;32;20203;-68
2022/09/15 08:33:25;;;;;;;1.00;0.30;;;;;;;18.80;86.49;94557.38;4394519;32;20180;-64
2022/09/15 08:35:51;;;;;;;0.60;0.60;;;;;;;18.88;86.64;94555.56;4397703;32;20279;-67
2022/09/15 08:38:16;;;;;;;0.40;0.23;;;;;;;18.80;85.99;94570.81;4392865;32;20180;-66
2022/09/15 08:40:44;;;;;;;0.40;0.40;;;;;;;18.84;86.64;94562.81;4394932;32;20189;-65
2022/09/15 08:43:19;;;;;;;0.33;0.30;;;;;;;18.90;87.21;94563.25;4394511;32;20206;-70
2022/09/15 08:45:54;;;;;;;0.37;0.37;;;;;;;19.00;85.74;94560.69;4396787;32;20188;-67
2022/09/15 08:48:25;;;;;;;0.50;0.50;;;;;;;19.11;85.06;94569.69;4415078;32;20187;-66
2022/09/15 08:50:56;;;;;;;1.83;0.40;;;;;;;19.19;84.30;94568.63;4387193;32;20204;-69
2022/09/15 08:54:01;;;;;;;0.10;0.10;;;;;;;19.24;83.57;94564.84;4401270;32;20188;-68
2022/09/15 08:56:28;;;;;;;0.43;0.43;;;;;;;19.41;82.78;94564.25;4395860;32;20196;-66
2022/09/15 08:58:54;;;;;;;0.30;0.20;;;;;;;19.41;83.27;94561.56;4394731;32;20192;-67
2022/09/15 09:01:41;;;;;;;1.33;1.23;;;;;;;19.56;82.40;94559.81;4415290;32;20214;-64
2022/09/15 09:04:20;;;;;;;0.13;0.13;;;;;;;19.61;81.79;94564.88;4396152;32;20181;-71
2022/09/15 09:07:28;;;;;;;0.20;0.20;;;;;;;19.69;81.67;94555.75;4385338;32;20214;-69
2022/09/15 09:10:24;;;;;;;0.30;0.30;;;;;;;19.83;79.76;94545.09;4400879;32;20203;-67
2022/09/15 09:13:08;;;;;;;0.30;0.30;;;;;;;19.96;80.00;94552.88;4393765;32;20184;-72
2022/09/15 09:16:03;;;;;;;0.40;0.40;;;;;;;20.01;78.25;94566.03;4394934;32;20206;-67
2022/09/15 09:18:45;;;;;;;0.40;0.40;;;;;;;20.09;77.50;94559.56;4398072;32;20203;-65
2022/09/15 09:21:11;;;;;;;0.63;0.63;;;;;;;20.14;78.59;94543.06;4403937;32;20188;-69
2022/09/15 09:23:53;;;;;;;0.30;0.30;;;;;;;20.12;78.17;94546.13;4409267;32;20202;-65
2022/09/15 09:26:19;;;;;;;0.70;0.47;;;;;;;20.11;77.67;94554.56;4404713;32;20188;-69
2022/09/15 09:28:54;;;;;;;1.43;0.63;;;;;;;20.06;77.44;94549.53;4393157;32;20177;-70
2022/09/15 09:31:23;;;;;;;0.50;0.20;;;;;;;19.99;78.19;94546.75;4404267;32;20258;-66
2022/09/15 09:33:55;;;;;;;0.30;0.30;;;;;;;20.02;77.75;94552.19;4401238;32;20183;-63
2022/09/15 09:36:20;;;;;;;0.30;0.30;;;;;;;20.00;77.23;94549.09;4395737;32;20267;-64
2022/09/15 09:38:47;;;;;;;0.33;0.30;;;;;;;20.01;77.05;94544.47;4417403;32;20200;-62
2022/09/15 09:41:24;;;;;;;6.33;0.77;;;;;;;19.94;76.63;94553.28;4385235;32;20253;-63
2022/09/15 09:43:53;;;;;;;0.20;0.20;;;;;;;19.93;77.00;94546.34;4359718;32;20196;-63
2022/09/15 09:46:20;;;;;;;0.20;0.20;;;;;;;19.99;76.57;94541.38;4390277;32;20192;-69
2022/09/15 09:49:09;;;;;;;0.10;0.10;;;;;;;19.92;76.75;94539.41;4358670;32;20188;-63
2022/09/15 09:51:50;;;;;;;0.77;0.50;;;;;;;19.93;77.42;94540.19;4370855;32;20203;-65
2022/09/15 09:54:19;;;;;;;0.50;0.50;;;;;;;19.87;77.16;94540.53;4386391;32;20211;-65
2022/09/15 09:56:48;;;;;;;0.20;0.20;;;;;;;19.84;78.03;94537.81;4378225;32;20266;-64
2022/09/15 09:59:46;;;;;;;0.93;0.80;;;;;;;19.87;76.73;94528.97;4393868;32;20207;-65
2022/09/15 10:02:17;;;;;;;0.83;0.40;;;;;;;19.85;76.98;94532.03;4390957;32;20202;-64
2022/09/15 10:05:01;;;;;;;0.30;0.30;;;;;;;19.90;76.76;94537.09;4384614;32;20181;-63
2022/09/15 10:07:31;;;;;;;0.30;0.30;;;;;;;19.96;76.79;94525.97;4408932;32;20199;-68
2022/09/15 10:09:59;;;;;;;0.40;0.40;;;;;;;19.99;76.83;94526.00;4348718;32;20200;-69
2022/09/15 10:12:38;;;;;;;0.30;0.30;;;;;;;20.06;76.45;94520.69;4370198;32;20183;-69
2022/09/15 10:15:20;;;;;;;0.10;0.10;;;;;;;20.28;75.56;94515.44;4397796;32;20194;-70
2022/09/15 10:17:48;;;;;;;0.30;0.30;;;;;;;20.42;75.46;94521.72;4397772;32;20199;-70
2022/09/15 10:20:49;;;;;;;0.40;0.40;;;;;;;20.57;74.55;94520.69;4349346;32;20240;-71
2022/09/15 10:23:28;;;;;;;0.13;0.13;;;;;;;20.65;73.69;94504.53;4381580;32;20179;-66
2022/09/15 10:26:15;;;;;;;0.77;0.77;;;;;;;20.76;74.00;94508.84;4378330;32;20204;-67
2022/09/15 10:28:41;;;;;;;0.30;0.30;;;;;;;20.72;73.96;94508.03;4388111;32;20188;-69
2022/09/15 10:31:27;;;;;;;1.70;0.70;;;;;;;20.84;73.16;94520.41;4372276;32;20233;-69
2022/09/15 10:33:53;;;;;;;0.10;0.10;;;;;;;20.98;73.80;94511.63;4385633;32;20259;-68
2022/09/15 10:36:33;;;;;;;0.30;0.23;;;;;;;21.08;72.52;94511.66;4390408;32;20184;-64
2022/09/15 10:39:47;;;;;;;0.13;0.13;;;;;;;21.20;71.38;94505.94;4374271;32;20207;-66
2022/09/15 10:42:44;;;;;;;0.90;0.80;;;;;;;21.26;70.83;94515.22;4386487;32;20184;-71
2022/09/15 10:45:39;;;;;;;0.20;0.20;;;;;;;21.23;70.53;94510.59;4397309;32;20237;-67
2022/09/15 10:48:20;;;;;;;0.00;0.00;;;;;;;21.02;69.62;94532.06;4384913;32;20237;-68
2022/09/15 10:51:02;;;;;;;2.10;0.70;;;;;;;20.94;70.42;94530.50;4385035;32;20229;-69
2022/09/15 10:53:50;;;;;;;0.43;0.40;;;;;;;20.86;70.32;94537.00;4388770;32;20207;-68
2022/09/15 10:56:41;;;;;;;0.30;0.30;;;;;;;20.83;71.56;94535.81;4400625;32;20210;-69
2022/09/15 10:59:15;;;;;;;0.30;0.20;;;;;;;20.81;70.84;94537.34;4384674;32;20242;-67
2022/09/15 11:02:16;;;;;;;0.23;0.20;;;;;;;20.87;71.76;94525.06;4409243;32;20189;-67
2022/09/15 11:05:18;;;;;;;0.10;0.10;;;;;;;20.81;71.18;94521.94;4397222;32;20237;-68
2022/09/15 11:08:30;;;;;;;0.80;0.80;;;;;;;20.86;70.40;94528.91;4392321;32;20184;-67
2022/09/15 11:11:44;;;;;;;0.90;0.90;;;;;;;20.80;70.28;94525.78;4411982;32;20299;-69
2022/09/15 11:14:26;;;;;;;2.20;1.20;;;;;;;20.81;70.98;94521.16;4374545;32;20236;-72
2022/09/15 11:17:13;;;;;;;0.93;0.93;;;;;;;20.87;72.25;94520.44;4383783;32;20325;-70
2022/09/15 11:20:06;;;;;;;0.53;0.53;;;;;;;20.99;71.42;94510.50;4389282;32;20184;-70
2022/09/15 11:22:40;;;;;;;0.63;0.63;;;;;;;21.03;71.41;94520.13;4351980;32;20188;-67
2022/09/15 11:25:34;;;;;;;0.67;0.47;;;;;;;20.99;71.79;94521.28;4376048;32;20188;-70
2022/09/15 11:28:46;;;;;;;0.57;0.57;;;;;;;20.95;71.63;94510.47;4373034;32;20192;-70
2022/09/15 11:31:38;;;;;;;0.77;0.77;;;;;;;20.93;71.14;94523.56;4381825;32;20188;-70
2022/09/15 11:34:22;;;;;;;1.13;0.50;;;;;;;20.88;70.94;94515.81;4391849;32;20192;-71
2022/09/15 11:37:02;;;;;;;0.10;0.10;;;;;;;20.82;71.61;94507.31;4385465;32;20188;-71
2022/09/15 11:40:07;;;;;;;0.20;0.20;;;;;;;20.87;71.50;94525.06;4386793;32;20214;-70
2022/09/15 11:42:55;;;;;;;0.30;0.30;;;;;;;20.93;70.69;94505.44;4373409;32;20184;-67
2022/09/15 11:45:26;;;;;;;0.40;0.40;;;;;;;20.97;70.26;94510.88;4369553;32;20275;-69
2022/09/15 11:47:56;;;;;;;0.20;0.20;;;;;;;20.91;71.87;94510.44;4386747;32;20326;-68
2022/09/15 11:50:25;;;;;;;0.30;0.30;;;;;;;20.89;70.85;94503.88;4374794;32;20230;-68
2022/09/15 11:53:30;;;;;;;0.20;0.20;;;;;;;20.89;71.07;94511.97;4393259;32;20271;-66
2022/09/15 11:56:23;;;;;;;14.43;0.80;;;;;;;20.74;71.59;94505.75;4398340;32;20207;-72
2022/09/15 11:59:02;;;;;;;1.60;0.87;;;;;;;20.77;71.93;94512.31;4387268;32;20208;-67